KFMN/FMN METAR and TAF weather

Enter ICAO airport designator
Station Type Date Time Source
KFMN METAR 2019/06/27 09:53 UTC NOAA

KFMN 270953Z AUTO 02007KT 10SM CLR 17/M02 A3017 RMK AO2 SLP151 T01671022


Station Type Date Time Source
KFMN Decoded METAR 2019/06/27 09:53 UTC NOAA

FARMINGTON FOUR CORNERS, NM, United States (KFMN) 36-45N 108-14W 1685M
Jun 27, 2019 - 05:53 AM EDT / 2019.06.27 0953 UTC
Wind: from the NNE (020 degrees) at 8 MPH (7 KT):0
Visibility: 10 mile(s):0
Sky conditions: clear
Temperature: 62.1 F (16.7 C)
Dew Point: 28.0 F (-2.2 C)
Relative Humidity: 27%
Pressure (altimeter): 30.17 in. Hg (1021 hPa)
ob: KFMN 270953Z AUTO 02007KT 10SM CLR 17/M02 A3017 RMK AO2 SLP151 T01671022
cycle: 10

Station Type Date Time Source
KFMN TAF 2019/06/27 06:30 UTC NOAA

TAF KFMN 270528Z 2706/2806 26007KT P6SM BKN120
FM270900 08006KT P6SM SCT120 SCT250
FM271700 18007KT P6SM SCT250
FM272100 24015G22KT P6SM SCT100 SCT250

Example: see airport list